• Join FlightAware (Why Join?)
  • Login
  • US Flag 
09:56AM EDT


 

Airport Tracker/Info


-or-


 

Live Flight TrackerFlight Track Log ✈ CSN6834 ✈ 19-Mar-2014 ✈ ZYMD / MDG - ZYTL / DLC

Flight Track Log - Related Links

Times and Time Zones

All times are in EDT time to prevent confusion due to time zone crossing. See the CSN6834 flight status page for this flight to view local times or setup timezone preferences in your user account.

Time Position Orientation Groundspeed Altitude Reporting Facility
EDT Latitude Longitude Course Direction KTS MPH feet Rate Location/Type
04:25AM 44.2339 129.0899 230° Southwest  Level Estimated
04:26AM 44.1756 128.9947 230° Southwest  Level Estimated
04:27AM 44.1172 128.8996 229° Southwest  Level Estimated
04:28AM 44.0588 128.8048 229° Southwest  Level Estimated
04:29AM 44.0003 128.7101 229° Southwest  Level Estimated
04:30AM 43.9417 128.6156 229° Southwest  Level Estimated
04:31AM 43.8830 128.5213 229° Southwest  Level Estimated
04:32AM 43.8243 128.4272 229° Southwest  Level Estimated
04:33AM 43.7655 128.3332 229° Southwest  Level Estimated
04:34AM 43.7066 128.2395 229° Southwest  Level Estimated
04:35AM 43.6476 128.1459 229° Southwest  Level Estimated
04:36AM 43.5885 128.0525 229° Southwest  Level Estimated
04:37AM 43.5294 127.9593 229° Southwest  Level Estimated
04:38AM 43.4702 127.8663 229° Southwest  Level Estimated
04:39AM 43.4109 127.7735 229° Southwest  Level Estimated
04:40AM 43.3516 127.6808 229° Southwest  Level Estimated
04:41AM 43.2921 127.5883 229° Southwest  Level Estimated
04:42AM 43.2326 127.4961 229° Southwest  Level Estimated
04:43AM 43.1730 127.4040 228° Southwest  Level Estimated
04:44AM 43.1134 127.3120 228° Southwest  Level Estimated
04:45AM 43.0537 127.2203 228° Southwest  Level Estimated
04:46AM 42.9939 127.1287 228° Southwest  Level Estimated
04:47AM 42.9340 127.0373 228° Southwest  Level Estimated
04:48AM 42.8741 126.9461 228° Southwest  Level Estimated
04:49AM 42.8140 126.8550 228° Southwest  Level Estimated
04:50AM 42.7540 126.7642 228° Southwest  Level Estimated
04:51AM 42.6938 126.6735 228° Southwest  Level Estimated
04:52AM 42.6336 126.5830 228° Southwest  Level Estimated
04:53AM 42.5733 126.4926 228° Southwest  Level Estimated
04:54AM 42.5129 126.4025 228° Southwest  Level Estimated
04:55AM 42.4524 126.3125 228° Southwest  Level Estimated
04:56AM 42.3919 126.2227 228° Southwest  Level Estimated
04:57AM 42.3313 126.1330 228° Southwest  Level Estimated
04:58AM 42.2707 126.0436 228° Southwest  Level Estimated
04:59AM 42.2100 125.9543 227° Southwest  Level Estimated
05:00AM 42.1492 125.8651 227° Southwest  Level Estimated
05:01AM 42.0883 125.7762 227° Southwest  Level Estimated
05:02AM 42.0274 125.6874 227° Southwest  Level Estimated
05:03AM 41.9664 125.5988 227° Southwest  Level Estimated
05:04AM 41.9053 125.5103 227° Southwest  Level Estimated
05:05AM 41.8442 125.4221 227° Southwest  Level Estimated
05:06AM 41.7830 125.3340 227° Southwest  Level Estimated
05:07AM 41.7217 125.2460 227° Southwest  Level Estimated
05:08AM 41.6604 125.1582 227° Southwest  Level Estimated
05:09AM 41.5990 125.0706 227° Southwest  Level Estimated
05:10AM 41.5375 124.9832 227° Southwest  Level Estimated
05:11AM 41.4760 124.8959 227° Southwest  Level Estimated
05:12AM 41.4144 124.8088 227° Southwest  Level Estimated
05:13AM 41.3527 124.7219 227° Southwest  Level Estimated
05:14AM 41.2910 124.6351 227° Southwest  Level Estimated
05:15AM 41.2292 124.5485 227° Southwest  Level Estimated
05:16AM 41.1673 124.4621 226° Southwest  Level Estimated
05:17AM 41.1054 124.3758 226° Southwest  Level Estimated
05:18AM 41.0434 124.2897 226° Southwest  Level Estimated
05:19AM 40.9814 124.2037 226° Southwest  Level Estimated
05:20AM 40.9193 124.1179 226° Southwest  Level Estimated
05:21AM 40.8571 124.0323 226° Southwest  Level Estimated
05:22AM 40.7948 123.9468 226° Southwest  Level Estimated
05:23AM 40.7325 123.8615 226° Southwest  Level Estimated
05:24AM 40.6702 123.7763 226° Southwest  Level Estimated
05:25AM 40.6077 123.6913 226° Southwest  Level Estimated
05:26AM 40.5452 123.6065 226° Southwest  Level Estimated
05:27AM 40.4827 123.5218 226° Southwest  Level Estimated
05:28AM 40.4201 123.4373 226° Southwest  Level Estimated
05:29AM 40.3574 123.3529 226° Southwest  Level Estimated
05:30AM 40.2946 123.2687 226° Southwest  Level Estimated
05:31AM 40.2318 123.1847 226° Southwest  Level Estimated
05:32AM 40.1690 123.1008 226° Southwest  Level Estimated
05:33AM 40.1060 123.0170 226° Southwest  Level Estimated
05:34AM 40.0431 122.9334 225° Southwest  Level Estimated
05:35AM 39.9800 122.8500 225° Southwest  Level Estimated
05:36AM 39.9169 122.7667 225° Southwest  Level Estimated
05:37AM 39.8538 122.6836 225° Southwest  Level Estimated
05:38AM 39.7905 122.6006 225° Southwest  Level Estimated
05:39AM 39.7273 122.5178 225° Southwest  Level Estimated
05:40AM 39.6639 122.4352 225° Southwest  Level Estimated
05:41AM 39.6005 122.3526 225° Southwest  Level Estimated
05:42AM 39.5371 122.2703 225° Southwest  Level Estimated
05:43AM 39.4735 122.1881 225° Southwest  Level Estimated
05:44AM 39.4100 122.1060 225° Southwest  Level Estimated
05:45AM 39.3464 122.0241 225° Southwest  Level Estimated
05:46AM 39.2827 121.9423 225° Southwest  Level Estimated
05:47AM 39.2189 121.8607 225° Southwest  Level Estimated
05:48AM 39.1551 121.7792 225° Southwest  Level Estimated
05:49AM 39.0913 121.6979 225° Southwest  Level Estimated
05:50AM 39.0274 121.6167 225° Southwest  Level Estimated
05:51AM 38.9657 121.5386 225° Southwest  Level Estimated
05:52AM 38.9657 121.5386 North  Level Estimated
05:53AM 38.9657 121.5386 North  Level Estimated
05:54AM 38.9657 121.5386 North  Level Estimated